Time;durP1;ratioP1;P1;durP2;ratioP2;P2;SDS_P1;SDS_P2;PMS_P1;PMS_P2;Temp;Humidity;BMP_temperature;BMP_pressure;BME280_temperature;BME280_humidity;BME280_pressure;Samples;Min_cycle;Max_cycle;Signal;HPM_P1;HPM_P2
2021/07/03 00:00:59;;;;;;;5.47;4.97;;;;;;;14.21;80.23;101758.31;5040605;28;20575;-71
2021/07/03 00:03:24;;;;;;;5.73;5.13;;;;;;;14.54;80.49;101789.19;5041548;28;20641;-71
2021/07/03 00:05:50;;;;;;;6.57;4.60;;;;;;;14.43;79.46;101780.59;5041139;28;20441;-71
2021/07/03 00:08:15;;;;;;;6.77;5.20;;;;;;;14.76;80.96;101803.41;5042407;28;20184;-70
2021/07/03 00:10:41;;;;;;;6.83;5.27;;;;;;;14.88;79.56;101802.59;5040807;28;20262;-71
2021/07/03 00:13:07;;;;;;;6.27;5.33;;;;;;;14.19;79.92;101749.56;5037378;28;20273;-71
2021/07/03 00:15:33;;;;;;;5.43;4.93;;;;;;;14.56;79.80;101790.66;5040415;28;20474;-72
2021/07/03 00:17:59;;;;;;;11.33;5.67;;;;;;;14.27;80.08;101797.16;5035014;28;20253;-71
2021/07/03 00:20:26;;;;;;;8.40;5.93;;;;;;;14.30;80.01;101777.03;5033900;28;20477;-71
2021/07/03 00:22:52;;;;;;;6.43;5.43;;;;;;;14.35;79.80;101794.28;5037963;28;20481;-70
2021/07/03 00:25:18;;;;;;;6.30;5.70;;;;;;;14.20;80.07;101761.19;5036992;28;21193;-71
2021/07/03 00:27:44;;;;;;;7.80;6.53;;;;;;;14.58;79.02;101795.84;5039384;28;20495;-72
2021/07/03 00:30:11;;;;;;;6.60;5.93;;;;;;;14.51;79.39;101776.06;5034506;28;20224;-72
2021/07/03 00:32:37;;;;;;;7.37;5.93;;;;;;;14.32;78.88;101765.00;5036502;28;20665;-73
2021/07/03 00:35:04;;;;;;;6.27;5.53;;;;;;;14.25;79.24;101793.81;5036014;28;20479;-72
2021/07/03 00:37:29;;;;;;;5.13;4.73;;;;;;;14.56;79.77;101798.75;5037804;28;20496;-72
2021/07/03 00:39:55;;;;;;;7.77;6.53;;;;;;;14.45;81.45;101799.31;5036015;28;20497;-72
2021/07/03 00:42:22;;;;;;;6.73;6.00;;;;;;;14.55;81.16;101796.25;5041233;28;20202;-72
2021/07/03 00:44:47;;;;;;;6.07;5.53;;;;;;;14.66;81.05;101795.69;5040778;28;20443;-72
2021/07/03 00:47:15;;;;;;;5.93;5.30;;;;;;;14.50;79.64;101785.22;5037223;28;20449;-72
2021/07/03 00:49:41;;;;;;;6.03;5.30;;;;;;;14.29;79.59;101762.72;5032791;28;20675;-75
2021/07/03 00:52:08;;;;;;;7.17;6.07;;;;;;;14.26;79.77;101798.16;5038451;28;20451;-72
2021/07/03 00:54:36;;;;;;;6.50;5.70;;;;;;;14.16;79.96;101797.72;5032494;28;20187;-71
2021/07/03 00:57:04;;;;;;;5.60;5.10;;;;;;;14.21;80.07;101797.94;5040170;28;20455;-72
2021/07/03 00:59:44;;;;;;;5.67;5.07;;;;;;;14.23;79.74;101796.72;5036241;28;20658;-72
2021/07/03 01:02:12;;;;;;;6.13;4.87;;;;;;;14.39;79.20;101806.34;5035596;28;20535;-72
2021/07/03 01:04:38;;;;;;;5.40;4.90;;;;;;;14.20;79.39;101786.34;5038684;28;20949;-73
2021/07/03 01:07:05;;;;;;;5.30;4.80;;;;;;;14.18;78.88;101809.16;5036852;28;20927;-71
2021/07/03 01:09:31;;;;;;;9.33;5.37;;;;;;;14.04;78.07;101813.63;5038189;28;20469;-70
2021/07/03 01:11:57;;;;;;;6.37;5.73;;;;;;;14.09;78.58;101808.47;5040051;28;20486;-71
2021/07/03 01:14:23;;;;;;;5.80;4.77;;;;;;;13.86;78.13;101765.59;5037826;28;20488;-74
2021/07/03 01:16:49;;;;;;;5.73;4.67;;;;;;;14.08;78.23;101779.81;5037580;28;20235;-76
2021/07/03 01:19:21;;;;;;;6.17;4.97;;;;;;;14.24;78.30;101808.34;5035759;28;21179;-71
2021/07/03 01:21:59;;;;;;;6.20;5.30;;;;;;;13.60;78.70;101709.63;5035169;28;20785;-71
2021/07/03 01:24:28;;;;;;;5.90;5.30;;;;;;;14.21;79.13;101800.66;5037014;28;20430;-72
2021/07/03 01:26:55;;;;;;;7.93;5.07;;;;;;;14.12;79.07;101782.97;5035169;28;20437;-72
2021/07/03 01:29:23;;;;;;;5.40;4.90;;;;;;;13.79;79.04;101764.69;5023557;28;20445;-71
2021/07/03 01:31:50;;;;;;;9.30;5.20;;;;;;;14.04;78.91;101797.44;5036386;28;20565;-72
2021/07/03 01:34:19;;;;;;;5.33;4.93;;;;;;;13.89;79.34;101802.13;5032525;28;20533;-72
2021/07/03 01:36:47;;;;;;;5.20;4.50;;;;;;;14.00;78.71;101806.94;5035563;28;20464;-71
2021/07/03 01:39:13;;;;;;;7.27;4.90;;;;;;;13.98;78.38;101793.66;5033019;28;20442;-72
2021/07/03 01:41:39;;;;;;;5.83;5.20;;;;;;;13.86;78.61;101806.03;5036637;28;20545;-71
2021/07/03 01:44:05;;;;;;;5.87;5.27;;;;;;;13.45;78.15;101743.91;5032280;28;20957;-70
2021/07/03 01:46:31;;;;;;;6.10;5.50;;;;;;;13.87;77.85;101814.97;5034130;28;20204;-71
2021/07/03 01:49:15;;;;;;;5.43;4.93;;;;;;;13.55;77.43;101755.22;5036702;28;20489;-70
2021/07/03 01:51:40;;;;;;;6.60;5.27;;;;;;;13.89;77.80;101799.44;5036024;28;20230;-72
2021/07/03 01:54:06;;;;;;;7.27;5.30;;;;;;;13.86;78.05;101799.81;5039185;28;20442;-71
2021/07/03 01:56:31;;;;;;;5.37;4.87;;;;;;;13.76;78.83;101790.19;5036559;28;20199;-72
2021/07/03 01:58:57;;;;;;;6.20;5.40;;;;;;;13.64;78.47;101769.38;5032705;28;20192;-72
2021/07/03 02:01:22;;;;;;;5.83;5.10;;;;;;;13.76;78.02;101794.75;5033616;28;20207;-73
2021/07/03 02:03:48;;;;;;;4.50;4.10;;;;;;;13.81;78.09;101794.19;5031669;28;20187;-71
2021/07/03 02:06:13;;;;;;;5.90;5.30;;;;;;;13.76;78.73;101775.88;5033007;28;20208;-71
2021/07/03 02:08:39;;;;;;;6.83;5.03;;;;;;;13.71;78.73;101779.19;5034959;28;20561;-71
2021/07/03 02:11:04;;;;;;;5.43;4.40;;;;;;;13.83;79.23;101809.13;5033432;28;20208;-71
2021/07/03 02:13:32;;;;;;;5.10;4.60;;;;;;;13.60;79.41;101795.03;5037740;28;20478;-70
2021/07/03 02:16:00;;;;;;;5.33;4.30;;;;;;;13.65;80.03;101815.00;5032061;28;20215;-73
2021/07/03 02:18:25;;;;;;;5.40;4.70;;;;;;;13.47;80.59;101811.94;5039260;28;20517;-71
2021/07/03 02:20:51;;;;;;;3.97;3.60;;;;;;;13.78;79.92;101804.31;5036373;28;21025;-71
2021/07/03 02:23:17;;;;;;;5.40;4.70;;;;;;;13.82;79.34;101801.22;5033521;28;20215;-72
2021/07/03 02:25:45;;;;;;;5.90;4.77;;;;;;;13.67;79.29;101790.53;5024395;28;20199;-73
2021/07/03 02:28:14;;;;;;;5.83;4.07;;;;;;;13.91;78.80;101800.03;5036217;28;20808;-72
2021/07/03 02:30:40;;;;;;;4.27;3.97;;;;;;;13.97;79.63;101786.63;5033081;28;20457;-72
2021/07/03 02:33:06;;;;;;;5.23;4.40;;;;;;;14.01;80.41;101798.66;5034706;28;20435;-73
2021/07/03 02:35:32;;;;;;;4.47;4.00;;;;;;;13.85;80.22;101787.34;5032506;28;20484;-73
2021/07/03 02:37:58;;;;;;;6.83;4.27;;;;;;;13.99;80.28;101797.19;5035599;28;20183;-72
2021/07/03 02:40:24;;;;;;;6.03;5.00;;;;;;;13.72;81.25;101780.84;5032048;28;20254;-72
2021/07/03 02:42:49;;;;;;;5.70;4.77;;;;;;;13.76;82.30;101800.97;5014012;28;20450;-72
2021/07/03 02:45:17;;;;;;;5.40;4.87;;;;;;;13.89;81.17;101805.66;5030608;28;20303;-73
2021/07/03 02:47:43;;;;;;;6.20;4.97;;;;;;;13.75;79.87;101804.72;5036902;28;20249;-72
2021/07/03 02:50:12;;;;;;;5.50;5.00;;;;;;;13.62;79.59;101804.59;5030403;28;20473;-70
2021/07/03 02:52:37;;;;;;;7.27;4.67;;;;;;;13.58;79.92;101806.03;5034476;28;20460;-72
2021/07/03 02:55:04;;;;;;;4.67;4.27;;;;;;;13.78;79.26;101801.63;5037163;28;20469;-71
2021/07/03 02:57:30;;;;;;;5.37;4.87;;;;;;;13.82;79.41;101785.88;5035473;28;20211;-71
2021/07/03 02:59:55;;;;;;;5.20;4.70;;;;;;;13.94;79.03;101802.34;5035798;28;20513;-72
2021/07/03 03:02:21;;;;;;;6.53;4.93;;;;;;;13.79;79.29;101802.44;5037094;28;20183;-74
2021/07/03 03:04:46;;;;;;;4.90;4.50;;;;;;;13.67;79.66;101799.47;5033089;28;20736;-72
2021/07/03 03:07:12;;;;;;;5.00;4.57;;;;;;;13.69;79.14;101793.88;5034980;28;20679;-72
2021/07/03 03:09:38;;;;;;;4.63;4.23;;;;;;;13.56;78.69;101794.59;5033981;28;20184;-71
2021/07/03 03:12:04;;;;;;;5.60;5.00;;;;;;;13.56;78.89;101792.72;5036176;28;20234;-71
2021/07/03 03:14:29;;;;;;;6.10;4.93;;;;;;;13.33;78.78;101778.66;5037345;28;20648;-72
2021/07/03 03:16:55;;;;;;;5.20;4.70;;;;;;;13.16;78.58;101744.91;5035106;28;20508;-71
2021/07/03 03:19:20;;;;;;;7.03;4.90;;;;;;;13.36;81.27;101778.25;5033526;28;20238;-70
2021/07/03 03:21:46;;;;;;;7.27;5.30;;;;;;;13.51;81.78;101788.94;5035729;28;22426;-72
2021/07/03 03:24:12;;;;;;;6.10;5.10;;;;;;;13.50;81.47;101803.47;5034882;28;20188;-71
2021/07/03 03:26:37;;;;;;;5.40;4.60;;;;;;;13.53;81.21;101806.59;5033726;28;23025;-71
2021/07/03 03:29:03;;;;;;;4.90;4.40;;;;;;;13.74;80.92;101810.28;5040982;28;20196;-69
2021/07/03 03:31:29;;;;;;;4.67;4.27;;;;;;;13.64;80.39;101772.06;5051735;22;20284;-70
2021/07/03 03:33:55;;;;;;;4.57;4.17;;;;;;;13.74;80.11;101808.44;5058810;28;20980;-71
2021/07/03 03:36:20;;;;;;;4.90;4.40;;;;;;;13.47;80.41;101803.84;5057714;28;20215;-71
2021/07/03 03:38:46;;;;;;;5.30;3.77;;;;;;;13.29;81.29;101796.25;5057335;28;20191;-71
2021/07/03 03:41:12;;;;;;;5.40;4.20;;;;;;;13.42;82.08;101795.50;5056742;28;20242;-71
2021/07/03 03:43:38;;;;;;;4.53;4.10;;;;;;;13.41;80.97;101743.47;5057814;28;20176;-70
2021/07/03 03:46:04;;;;;;;6.80;4.50;;;;;;;13.78;80.82;101788.13;5056087;28;20448;-70
2021/07/03 03:48:30;;;;;;;6.13;4.93;;;;;;;13.63;81.44;101775.81;5056219;28;20314;-71
2021/07/03 03:50:55;;;;;;;5.13;4.73;;;;;;;13.65;81.32;101785.34;5058126;28;20761;-70
2021/07/03 03:53:21;;;;;;;5.10;4.60;;;;;;;13.65;80.67;101760.25;5056226;28;20236;-75
2021/07/03 03:55:46;;;;;;;5.03;3.83;;;;;;;13.53;80.41;101746.47;5058658;28;20222;-74
2021/07/03 03:58:11;;;;;;;4.90;4.40;;;;;;;13.33;80.87;101744.44;5057901;28;20701;-70
2021/07/03 04:00:37;;;;;;;4.27;3.77;;;;;;;13.41;80.27;101742.66;5059916;28;20211;-74
2021/07/03 04:03:02;;;;;;;4.30;3.87;;;;;;;13.70;80.34;101788.28;5056113;28;20215;-70
2021/07/03 04:05:28;;;;;;;4.67;4.27;;;;;;;13.71;80.62;101787.28;5059868;28;20268;-69
2021/07/03 04:07:53;;;;;;;4.00;3.70;;;;;;;13.72;81.37;101790.78;5062439;28;20234;-71
2021/07/03 04:10:19;;;;;;;4.30;3.90;;;;;;;13.79;80.42;101792.50;5060402;28;20831;-71
2021/07/03 04:12:47;;;;;;;5.77;3.50;;;;;;;13.60;81.09;101784.25;5060265;28;20289;-72
2021/07/03 04:15:13;;;;;;;3.80;3.40;;;;;;;13.85;80.55;101798.13;5059391;28;20218;-69
2021/07/03 04:17:40;;;;;;;4.17;3.77;;;;;;;13.64;81.26;101801.72;5056168;28;20445;-71
2021/07/03 04:20:07;;;;;;;4.30;3.90;;;;;;;13.75;80.07;101780.44;5059715;28;20317;-70
2021/07/03 04:22:34;;;;;;;5.30;4.13;;;;;;;13.71;81.56;101789.97;5056626;28;20456;-70
2021/07/03 04:25:00;;;;;;;3.60;3.30;;;;;;;13.87;80.46;101782.59;5059587;28;20494;-71
2021/07/03 04:27:25;;;;;;;6.93;3.53;;;;;;;13.92;81.07;101797.16;5059591;28;20491;-71
2021/07/03 04:29:51;;;;;;;4.17;3.77;;;;;;;13.91;82.14;101786.56;5056287;28;20432;-70
2021/07/03 04:32:17;;;;;;;4.07;3.67;;;;;;;14.06;82.03;101781.91;5052205;28;20275;-70
2021/07/03 04:34:42;;;;;;;3.70;3.40;;;;;;;13.68;83.12;101759.84;5060167;28;20434;-70
2021/07/03 04:37:08;;;;;;;4.20;3.80;;;;;;;13.93;82.44;101793.41;5055554;28;20191;-70
2021/07/03 04:39:34;;;;;;;3.93;3.67;;;;;;;13.79;82.62;101784.41;5060635;28;20527;-70
2021/07/03 04:41:59;;;;;;;3.97;3.50;;;;;;;13.69;82.64;101748.88;5054384;28;20203;-71
2021/07/03 04:44:25;;;;;;;5.13;3.37;;;;;;;13.90;81.66;101766.84;5058452;28;20202;-70
2021/07/03 04:46:50;;;;;;;3.97;3.60;;;;;;;13.86;81.95;101753.97;5054330;28;20269;-70
2021/07/03 04:49:16;;;;;;;3.70;3.40;;;;;;;13.91;81.48;101760.41;5056799;28;20191;-71
2021/07/03 04:51:41;;;;;;;2.83;2.63;;;;;;;14.10;81.47;101791.25;5057527;28;20304;-71
2021/07/03 04:54:07;;;;;;;3.43;3.13;;;;;;;14.06;81.80;101794.53;5058016;28;20183;-71
2021/07/03 04:56:33;;;;;;;3.33;3.13;;;;;;;13.93;82.04;101763.75;5057368;28;21092;-70
2021/07/03 04:58:58;;;;;;;3.90;2.90;;;;;;;14.18;81.92;101790.25;5055391;28;20963;-72
2021/07/03 05:01:24;;;;;;;3.97;3.13;;;;;;;14.27;81.58;101790.94;5057023;28;20204;-70
2021/07/03 05:03:50;;;;;;;4.53;3.93;;;;;;;14.23;82.14;101776.97;5054237;28;20853;-71
2021/07/03 05:06:16;;;;;;;4.77;4.33;;;;;;;14.20;83.87;101764.75;5057438;28;20179;-72
2021/07/03 05:08:42;;;;;;;9.23;4.87;;;;;;;14.34;84.25;101791.78;5057906;28;20437;-71
2021/07/03 05:11:08;;;;;;;7.93;6.30;;;;;;;14.25;84.18;101769.53;5055013;28;20465;-70
2021/07/03 05:13:34;;;;;;;7.60;5.83;;;;;;;14.14;83.91;101713.44;5056315;28;20203;-71
2021/07/03 05:16:00;;;;;;;6.83;6.23;;;;;;;14.76;83.24;101790.75;5061716;28;20305;-71
2021/07/03 05:18:26;;;;;;;6.30;5.70;;;;;;;14.59;83.67;101784.03;5054321;28;20842;-71
2021/07/03 05:20:52;;;;;;;6.60;5.97;;;;;;;14.39;83.07;101717.28;5056384;28;20461;-72
2021/07/03 05:23:18;;;;;;;7.00;6.30;;;;;;;14.86;82.95;101793.03;5057826;28;20434;-70
2021/07/03 05:25:44;;;;;;;6.20;5.60;;;;;;;14.84;82.73;101768.09;5052047;28;20183;-71
2021/07/03 05:28:11;;;;;;;7.00;5.47;;;;;;;15.11;83.89;101794.13;5055708;28;20580;-71
2021/07/03 05:30:37;;;;;;;6.70;5.50;;;;;;;15.08;83.58;101793.72;5056835;28;20474;-71
2021/07/03 05:33:03;;;;;;;6.40;5.80;;;;;;;15.12;83.65;101779.56;5053535;28;20434;-71
2021/07/03 05:35:29;;;;;;;7.07;6.30;;;;;;;15.09;83.61;101773.75;5056486;28;20993;-70
2021/07/03 05:37:54;;;;;;;5.07;4.57;;;;;;;15.20;83.17;101789.38;5056095;28;20449;-72
2021/07/03 05:40:20;;;;;;;10.90;4.30;;;;;;;15.27;82.98;101794.75;5059812;28;20286;-72
2021/07/03 05:42:46;;;;;;;5.90;4.60;;;;;;;15.30;83.76;101791.66;5053057;28;20190;-71
2021/07/03 05:45:14;;;;;;;7.00;5.30;;;;;;;15.51;83.06;101788.75;5052579;28;20171;-70
2021/07/03 05:47:40;;;;;;;5.03;4.53;;;;;;;14.74;84.11;101698.28;5054086;28;20629;-70
2021/07/03 05:50:06;;;;;;;5.37;4.87;;;;;;;15.45;84.23;101789.59;5054169;28;20449;-75
2021/07/03 05:52:32;;;;;;;6.70;5.70;;;;;;;15.07;84.52;101714.53;5058447;28;20248;-71
2021/07/03 05:54:58;;;;;;;6.93;5.40;;;;;;;15.33;84.08;101748.84;5052962;28;20782;-74
2021/07/03 05:57:26;;;;;;;7.53;5.83;;;;;;;15.45;84.65;101776.06;5057572;28;20429;-71
2021/07/03 05:59:51;;;;;;;8.83;5.67;;;;;;;15.62;84.00;101786.44;5052980;28;20179;-71
2021/07/03 06:02:17;;;;;;;7.10;5.33;;;;;;;15.70;84.02;101788.97;5053969;28;20519;-74
2021/07/03 06:04:43;;;;;;;6.50;5.17;;;;;;;15.85;84.00;101792.28;5053128;28;20184;-71
2021/07/03 06:07:08;;;;;;;6.63;5.07;;;;;;;15.91;83.18;101786.06;5054092;28;20602;-72
2021/07/03 06:09:34;;;;;;;8.13;4.90;;;;;;;15.38;83.21;101708.47;5054433;28;20213;-72
2021/07/03 06:11:59;;;;;;;5.90;5.30;;;;;;;15.81;83.72;101777.53;5057072;28;20286;-72
2021/07/03 06:14:25;;;;;;;6.97;6.03;;;;;;;15.83;84.07;101772.75;5054942;28;20207;-72
2021/07/03 06:16:50;;;;;;;5.67;5.17;;;;;;;15.94;83.10;101773.94;5051242;28;20253;-71
2021/07/03 06:19:21;;;;;;;6.50;5.43;;;;;;;16.04;82.06;101775.19;5050114;28;20303;-72
2021/07/03 06:21:47;;;;;;;6.50;5.87;;;;;;;16.09;81.92;101776.44;5057376;28;20336;-72
2021/07/03 06:24:13;;;;;;;5.57;5.07;;;;;;;15.94;80.53;101738.78;5053019;28;20553;-73
2021/07/03 06:26:39;;;;;;;5.10;4.63;;;;;;;16.21;80.84;101780.13;5055940;28;20672;-72
2021/07/03 06:29:05;;;;;;;5.67;5.17;;;;;;;16.21;81.23;101772.03;5055969;28;20430;-72
2021/07/03 06:31:30;;;;;;;6.50;5.80;;;;;;;16.03;80.53;101754.59;5061536;28;20531;-71
2021/07/03 06:33:56;;;;;;;6.80;5.80;;;;;;;15.94;80.40;101722.53;5054662;28;20190;-73
2021/07/03 06:36:21;;;;;;;8.57;6.53;;;;;;;15.92;80.09;101713.81;5055713;28;20207;-73
2021/07/03 06:38:47;;;;;;;5.23;4.73;;;;;;;16.48;79.72;101762.72;5055612;28;20648;-73
2021/07/03 06:41:12;;;;;;;8.50;5.93;;;;;;;16.38;80.86;101762.38;5062218;28;20203;-73
2021/07/03 06:43:38;;;;;;;5.30;4.70;;;;;;;16.54;81.02;101784.59;5058730;28;20704;-72
2021/07/03 06:46:03;;;;;;;5.70;4.77;;;;;;;16.42;80.63;101752.75;5058612;28;20194;-73
2021/07/03 06:48:28;;;;;;;6.40;4.77;;;;;;;16.67;80.01;101781.81;5061459;28;20228;-72
2021/07/03 06:50:54;;;;;;;5.13;4.40;;;;;;;16.52;79.78;101746.91;5057381;28;20210;-72
2021/07/03 06:53:19;;;;;;;6.67;5.13;;;;;;;16.72;80.56;101798.25;5060448;28;20190;-72
2021/07/03 06:55:45;;;;;;;5.80;5.30;;;;;;;16.89;79.75;101783.19;5063364;28;20196;-72
2021/07/03 06:58:10;;;;;;;8.50;7.20;;;;;;;16.78;80.02;101770.34;5059964;28;20195;-72
2021/07/03 07:00:35;;;;;;;7.83;7.07;;;;;;;16.86;79.85;101775.47;5061932;28;20199;-72
2021/07/03 07:03:01;;;;;;;9.13;7.87;;;;;;;16.82;79.41;101781.56;5061236;28;20176;-70
2021/07/03 07:05:27;;;;;;;6.73;6.00;;;;;;;16.98;78.85;101778.34;5061127;28;20183;-70
2021/07/03 07:07:53;;;;;;;10.30;6.80;;;;;;;16.62;79.87;101754.56;5057008;28;20183;-73
2021/07/03 07:10:18;;;;;;;6.70;5.77;;;;;;;16.94;79.90;101785.22;5055493;28;20469;-74
2021/07/03 07:12:43;;;;;;;6.60;6.00;;;;;;;16.92;80.04;101777.34;5057256;28;20195;-71
2021/07/03 07:15:09;;;;;;;7.07;5.37;;;;;;;16.67;77.95;101730.34;5055215;28;20201;-71
2021/07/03 07:17:34;;;;;;;5.83;5.13;;;;;;;16.89;77.63;101718.16;5058322;28;20180;-71
2021/07/03 07:20:00;;;;;;;5.70;3.93;;;;;;;17.13;77.72;101775.31;5056778;28;20238;-72
2021/07/03 07:22:25;;;;;;;5.23;4.73;;;;;;;17.06;79.19;101755.56;5056550;28;20176;-71
2021/07/03 07:24:51;;;;;;;9.80;6.20;;;;;;;17.30;78.06;101790.00;5051861;28;20588;-73
2021/07/03 07:27:22;;;;;;;7.40;5.47;;;;;;;17.45;77.97;101784.25;5047702;28;20191;-73
2021/07/03 07:29:48;;;;;;;6.70;6.00;;;;;;;16.91;78.36;101731.47;5067634;28;20723;-73
2021/07/03 07:32:13;;;;;;;5.10;4.63;;;;;;;17.24;78.35;101760.22;5055373;28;20460;-73
2021/07/03 07:34:39;;;;;;;5.33;3.60;;;;;;;17.45;76.13;101789.66;5057841;28;20175;-73
2021/07/03 07:37:05;;;;;;;3.90;3.57;;;;;;;17.19;76.77;101755.47;5056965;28;20235;-73
2021/07/03 07:39:32;;;;;;;4.50;3.77;;;;;;;17.22;74.45;101768.56;5058471;28;20183;-72
2021/07/03 07:41:57;;;;;;;5.80;4.03;;;;;;;17.38;75.45;101788.88;5058207;28;20457;-71
2021/07/03 07:44:23;;;;;;;6.10;4.07;;;;;;;17.12;72.65;101758.19;5053082;28;20434;-70
2021/07/03 07:46:48;;;;;;;5.67;4.00;;;;;;;17.48;72.36;101777.56;5053714;28;20731;-70
2021/07/03 07:49:14;;;;;;;3.53;3.20;;;;;;;17.38;73.42;101769.91;5053162;28;20191;-69
2021/07/03 07:51:39;;;;;;;4.63;3.10;;;;;;;17.37;73.25;101777.22;5054829;28;20695;-71
2021/07/03 07:54:05;;;;;;;4.60;3.30;;;;;;;16.96;71.99;101695.59;5054328;28;20183;-70
2021/07/03 07:56:30;;;;;;;3.63;3.20;;;;;;;17.48;73.77;101761.28;5050525;28;20265;-70
2021/07/03 07:58:56;;;;;;;3.10;2.80;;;;;;;17.64;73.29;101771.53;5056011;28;20183;-70
2021/07/03 08:01:23;;;;;;;4.00;3.40;;;;;;;17.82;73.86;101768.09;5057749;28;20200;-71
2021/07/03 08:03:48;;;;;;;5.37;3.13;;;;;;;17.76;73.60;101752.66;5052462;28;20248;-69
2021/07/03 08:06:14;;;;;;;3.80;3.17;;;;;;;17.89;74.76;101752.56;5051884;28;20449;-70
2021/07/03 08:08:39;;;;;;;4.80;3.90;;;;;;;18.18;69.86;101755.56;5056120;28;20194;-70
2021/07/03 08:11:05;;;;;;;6.73;3.77;;;;;;;17.90;70.29;101728.94;5058312;28;20195;-71
2021/07/03 08:13:30;;;;;;;3.03;2.83;;;;;;;17.88;71.69;101733.75;5055658;28;20278;-71
2021/07/03 08:15:56;;;;;;;4.30;3.53;;;;;;;18.11;70.95;101757.53;5054935;28;20667;-71
2021/07/03 08:18:23;;;;;;;5.33;3.40;;;;;;;17.96;71.67;101761.44;5051867;28;20180;-71
2021/07/03 08:20:49;;;;;;;3.50;3.20;;;;;;;17.99;71.08;101758.31;5061495;28;20575;-70
2021/07/03 08:23:14;;;;;;;3.27;2.83;;;;;;;17.92;71.90;101762.94;5052552;28;20796;-73
2021/07/03 08:25:40;;;;;;;4.27;3.17;;;;;;;17.60;71.63;101706.06;5050125;28;20442;-72
2021/07/03 08:28:06;;;;;;;5.63;3.00;;;;;;;17.96;72.69;101744.31;5047929;28;20183;-72
2021/07/03 08:30:33;;;;;;;5.40;2.90;;;;;;;17.87;71.64;101743.78;5053151;28;20627;-71
2021/07/03 08:32:59;;;;;;;5.33;3.80;;;;;;;18.16;71.68;101750.34;5056597;28;20201;-72
2021/07/03 08:35:24;;;;;;;4.77;2.93;;;;;;;18.15;71.81;101746.00;5048859;28;20465;-71
2021/07/03 08:37:50;;;;;;;3.30;3.00;;;;;;;18.09;73.04;101741.47;5057940;28;20192;-71
2021/07/03 08:40:16;;;;;;;4.27;3.30;;;;;;;18.10;73.14;101745.00;5059900;28;20198;-72
2021/07/03 08:42:41;;;;;;;3.80;3.10;;;;;;;18.06;72.12;101744.63;5059096;28;20175;-72
2021/07/03 08:45:08;;;;;;;4.50;2.90;;;;;;;18.03;71.63;101731.53;5058294;28;20430;-71
2021/07/03 08:47:38;;;;;;;3.43;3.10;;;;;;;18.06;72.77;101745.47;5056592;28;20206;-71
2021/07/03 08:50:03;;;;;;;4.67;3.00;;;;;;;17.66;72.33;101695.38;5054550;28;20477;-71
2021/07/03 08:52:29;;;;;;;3.63;2.83;;;;;;;17.87;72.45;101724.81;5055652;28;20442;-72
2021/07/03 08:54:57;;;;;;;8.50;3.70;;;;;;;18.00;70.26;101742.84;5049458;28;20202;-71
2021/07/03 08:57:22;;;;;;;3.10;2.67;;;;;;;18.00;70.26;101740.13;5049652;28;20192;-72
2021/07/03 08:59:58;;;;;;;3.13;2.80;;;;;;;17.99;71.18;101742.00;5056025;28;20453;-71
2021/07/03 09:02:38;;;;;;;3.23;2.93;;;;;;;17.90;71.64;101713.50;5051512;28;20202;-71
2021/07/03 09:05:16;;;;;;;2.90;2.70;;;;;;;17.88;72.35;101714.75;5053699;28;20575;-71
2021/07/03 09:07:42;;;;;;;3.90;2.63;;;;;;;17.81;71.76;101693.97;5051312;28;20448;-71
2021/07/03 09:10:08;;;;;;;3.07;2.87;;;;;;;17.98;70.73;101743.06;5054647;28;20462;-71
2021/07/03 09:12:35;;;;;;;2.83;2.60;;;;;;;18.08;71.10;101723.53;5053709;28;20179;-70
2021/07/03 09:15:21;;;;;;;2.83;2.63;;;;;;;18.29;71.65;101723.06;5057290;28;20993;-70
2021/07/03 09:17:48;;;;;;;2.23;2.10;;;;;;;18.35;72.04;101718.59;5055152;28;20442;-70
2021/07/03 09:20:28;;;;;;;4.17;2.93;;;;;;;18.25;70.96;101705.56;5055877;28;20465;-71
2021/07/03 09:23:07;;;;;;;3.37;2.53;;;;;;;18.41;70.70;101723.09;5059561;28;20498;-70
2021/07/03 09:25:35;;;;;;;2.57;2.37;;;;;;;18.65;70.12;101718.56;5053047;28;20441;-71
2021/07/03 09:28:06;;;;;;;2.07;1.97;;;;;;;18.71;70.56;101716.81;5054484;28;20441;-70
2021/07/03 09:30:32;;;;;;;4.30;2.90;;;;;;;18.67;67.49;101710.22;5057380;28;20469;-72
2021/07/03 09:32:58;;;;;;;5.00;3.17;;;;;;;18.73;66.73;101706.56;5053639;28;20448;-70
2021/07/03 09:35:23;;;;;;;3.40;3.10;;;;;;;18.84;66.84;101711.25;5050458;28;20532;-71
2021/07/03 09:37:49;;;;;;;3.73;2.60;;;;;;;18.94;65.83;101676.13;5056746;28;20215;-69
2021/07/03 09:40:15;;;;;;;2.90;2.50;;;;;;;18.96;65.49;101665.03;5050836;28;20203;-69
2021/07/03 09:42:43;;;;;;;2.70;2.40;;;;;;;18.89;65.58;101631.69;5047983;28;20199;-70
2021/07/03 09:45:10;;;;;;;3.47;3.17;;;;;;;19.03;64.07;101690.22;5047144;28;20453;-70
2021/07/03 09:47:36;;;;;;;3.60;3.30;;;;;;;19.12;64.32;101699.72;5050030;28;20438;-69
2021/07/03 09:50:02;;;;;;;3.30;2.97;;;;;;;18.79;65.36;101696.69;5051074;28;20449;-68
2021/07/03 09:52:28;;;;;;;2.80;2.30;;;;;;;18.98;65.46;101701.00;5053727;28;20453;-69
2021/07/03 09:54:53;;;;;;;3.20;2.83;;;;;;;19.02;64.84;101647.78;5054257;28;20216;-70
2021/07/03 09:57:21;;;;;;;3.20;2.90;;;;;;;19.22;65.00;101701.00;5049900;28;21263;-70
2021/07/03 09:59:47;;;;;;;4.53;2.87;;;;;;;19.45;64.77;101694.75;5050638;28;20206;-70
2021/07/03 10:02:12;;;;;;;3.13;2.83;;;;;;;19.51;66.38;101693.81;5058294;28;20429;-69
2021/07/03 10:04:38;;;;;;;2.20;2.10;;;;;;;19.83;66.00;101686.91;5059028;28;20231;-69
2021/07/03 10:07:06;;;;;;;10.67;5.07;;;;;;;19.79;65.39;101663.97;5044720;28;20651;-70
2021/07/03 10:09:36;;;;;;;32.47;10.97;;;;;;;19.75;64.99;101665.50;5045999;28;20686;-71
2021/07/03 10:12:11;;;;;;;15.20;5.82;;;;;;;19.57;65.91;101662.91;5047299;28;20477;-70
2021/07/03 10:14:43;;;;;;;6.80;2.90;;;;;;;19.72;65.81;101684.22;5056566;28;20187;-69
2021/07/03 10:17:09;;;;;;;4.63;2.40;;;;;;;19.49;65.58;101642.31;5042154;28;20477;-70
2021/07/03 10:19:47;;;;;;;3.10;2.80;;;;;;;19.71;65.57;101680.66;5050697;28;20438;-70
2021/07/03 10:22:27;;;;;;;2.47;2.27;;;;;;;19.88;65.75;101688.94;5056563;28;20182;-70
2021/07/03 10:24:55;;;;;;;3.17;2.27;;;;;;;19.92;64.62;101686.53;5059255;28;20433;-70
2021/07/03 10:27:24;;;;;;;3.00;2.40;;;;;;;19.89;64.90;101689.75;5056040;28;20926;-68
2021/07/03 10:29:53;;;;;;;2.20;2.00;;;;;;;19.93;64.96;101675.44;5054461;28;20445;-69
2021/07/03 10:32:30;;;;;;;2.40;2.13;;;;;;;19.69;65.06;101628.38;5050925;28;20434;-69
2021/07/03 10:35:08;;;;;;;2.40;2.07;;;;;;;20.17;64.51;101683.53;5053675;28;20460;-69
2021/07/03 10:37:34;;;;;;;2.67;2.10;;;;;;;20.29;64.08;101662.50;5050736;28;20460;-71
2021/07/03 10:40:00;;;;;;;3.30;1.73;;;;;;;20.79;65.00;101677.31;5050482;28;20535;-73
2021/07/03 10:42:32;;;;;;;2.70;2.10;;;;;;;20.66;64.15;101662.13;5049980;28;20784;-72
2021/07/03 10:45:13;;;;;;;2.23;1.93;;;;;;;20.79;63.68;101682.78;5055607;28;20430;-71
2021/07/03 10:47:39;;;;;;;3.60;2.37;;;;;;;20.66;64.37;101670.28;5054150;28;20434;-71
2021/07/03 10:50:17;;;;;;;2.10;2.00;;;;;;;20.36;64.72;101657.72;5048781;28;20456;-71
2021/07/03 10:52:43;;;;;;;2.70;2.00;;;;;;;20.53;64.50;101669.50;5053009;28;20314;-71
2021/07/03 10:55:08;;;;;;;2.33;2.13;;;;;;;20.74;64.53;101658.97;5052691;28;20445;-71
2021/07/03 10:57:43;;;;;;;2.10;2.00;;;;;;;21.10;62.51;101665.00;5056564;28;20621;-73
2021/07/03 11:00:11;;;;;;;2.60;2.37;;;;;;;20.98;62.02;101662.38;5052880;28;20207;-70
2021/07/03 11:02:37;;;;;;;2.67;2.27;;;;;;;20.97;63.07;101655.25;5055601;28;20442;-71
2021/07/03 11:05:14;;;;;;;1.77;1.67;;;;;;;21.12;62.56;101660.97;5061889;28;20476;-70
2021/07/03 11:07:43;;;;;;;2.47;2.30;;;;;;;21.16;63.36;101667.56;5058380;28;20441;-70
2021/07/03 11:10:25;;;;;;;2.53;2.33;;;;;;;21.43;62.10;101662.25;5058017;28;20465;-69
2021/07/03 11:12:54;;;;;;;2.60;2.40;;;;;;;21.49;62.38;101665.06;5060452;28;20444;-70
2021/07/03 11:15:27;;;;;;;2.73;2.10;;;;;;;21.48;62.57;101641.59;5053997;28;20564;-71
2021/07/03 11:17:58;;;;;;;4.30;2.63;;;;;;;21.22;61.79;101597.53;5058389;28;20473;-71
2021/07/03 11:20:28;;;;;;;2.90;2.70;;;;;;;21.07;62.14;101617.25;5062043;28;20460;-71
2021/07/03 11:22:55;;;;;;;3.87;2.67;;;;;;;21.17;62.84;101630.19;5059530;28;20453;-70